Time;durP1;ratioP1;P1;durP2;ratioP2;P2;SDS_P1;SDS_P2;PMS_P1;PMS_P2;Temp;Humidity;BMP_temperature;BMP_pressure;BME280_temperature;BME280_humidity;BME280_pressure;Samples;Min_cycle;Max_cycle;Signal;HPM_P1;HPM_P2
2023/11/26 00:01:46;;;;;;;;;;;;;;;10.63;54.71;99978.34;4992166;27;126346;-64
2023/11/26 00:04:12;;;;;;;;;;;;;;;10.64;54.57;99990.75;4964610;27;124412;-64
2023/11/26 00:06:45;;;;;;;;;;;;;;;10.64;54.64;99990.75;4977787;27;126952;-64
2023/11/26 00:09:11;;;;;;;;;;;;;;;10.64;54.46;99984.53;4959955;27;98283;-67
2023/11/26 00:11:37;;;;;;;;;;;;;;;10.63;54.65;99991.84;4982189;27;99659;-64
2023/11/26 00:14:04;;;;;;;;;;;;;;;10.64;54.91;99990.75;4970947;27;116182;-67
2023/11/26 00:16:38;;;;;;;;;;;;;;;10.64;54.91;99985.34;4985715;27;98361;-67
2023/11/26 00:19:04;;;;;;;;;;;;;;;10.64;54.55;99992.63;4987420;27;123543;-67
2023/11/26 00:21:30;;;;;;;;;;;;;;;10.64;54.89;100001.53;4966840;27;100226;-67
2023/11/26 00:23:57;;;;;;;;;;;;;;;10.64;54.76;99998.03;4971992;27;115549;-65
2023/11/26 00:26:24;;;;;;;;;;;;;;;10.64;54.87;100000.72;4962845;27;98513;-67
2023/11/26 00:28:49;;;;;;;;;;;;;;;10.64;54.63;100006.09;4962097;27;98260;-64
2023/11/26 00:31:16;;;;;;;;;;;;;;;10.63;54.93;100001.81;4962819;27;126323;-67
2023/11/26 00:33:44;;;;;;;;;;;;;;;10.63;55.02;100012.59;4977805;27;99401;-67
2023/11/26 00:36:16;;;;;;;;;;;;;;;10.62;54.49;100002.91;4986306;27;98413;-64
2023/11/26 00:38:43;;;;;;;;;;;;;;;10.63;54.77;100007.19;4978750;27;110642;-67
2023/11/26 00:41:09;;;;;;;;;;;;;;;10.61;54.99;100007.50;5001352;27;98205;-64
2023/11/26 00:43:35;;;;;;;;;;;;;;;10.61;54.78;100023.66;4969269;27;98435;-67
2023/11/26 00:46:01;;;;;;;;;;;;;;;10.62;54.69;100016.38;4970219;27;99533;-64
2023/11/26 00:48:27;;;;;;;;;;;;;;;10.59;54.83;100015.03;4984550;27;125873;-67
2023/11/26 00:50:54;;;;;;;;;;;;;;;10.60;54.83;100043.59;4967406;27;113611;-67
2023/11/26 00:53:21;;;;;;;;;;;;;;;10.59;54.72;100047.38;4979981;27;98402;-64
2023/11/26 00:55:47;;;;;;;;;;;;;;;10.60;54.92;100053.56;4965049;27;98486;-68
2023/11/26 00:58:13;;;;;;;;;;;;;;;10.60;54.87;100059.75;4961473;27;98339;-67
2023/11/26 01:00:39;;;;;;;;;;;;;;;10.60;54.84;100053.56;4964012;27;98046;-67
2023/11/26 01:03:06;;;;;;;;;;;;;;;10.60;54.77;100075.13;4957348;27;107793;-64
2023/11/26 01:05:33;;;;;;;;;;;;;;;10.61;54.91;100071.34;4981390;27;98112;-67
2023/11/26 01:08:00;;;;;;;;;;;;;;;10.60;54.75;100075.94;4968709;27;98236;-64
2023/11/26 01:10:26;;;;;;;;;;;;;;;10.59;54.46;100052.78;4962292;27;120189;-64
2023/11/26 01:12:52;;;;;;;;;;;;;;;10.59;54.62;100052.78;4969535;27;121774;-64
2023/11/26 01:15:18;;;;;;;;;;;;;;;10.60;54.91;100056.25;4978495;27;115560;-64
2023/11/26 01:17:44;;;;;;;;;;;;;;;10.59;54.93;100050.06;4983227;27;98437;-64
2023/11/26 01:20:11;;;;;;;;;;;;;;;10.59;54.92;100051.97;4991557;27;115466;-64
2023/11/26 01:22:38;;;;;;;;;;;;;;;10.59;54.93;100057.34;4978438;27;102934;-64
2023/11/26 01:25:05;;;;;;;;;;;;;;;10.58;54.67;100067.34;4966142;27;98019;-67
2023/11/26 01:27:31;;;;;;;;;;;;;;;10.58;54.44;100064.63;4978040;27;99103;-64
2023/11/26 01:29:58;;;;;;;;;;;;;;;10.56;54.57;100059.50;4966277;27;102495;-64
2023/11/26 01:32:24;;;;;;;;;;;;;;;10.56;54.71;100064.91;4964829;27;98425;-67
2023/11/26 01:34:50;;;;;;;;;;;;;;;10.57;54.71;100066.53;4969125;27;98155;-67
2023/11/26 01:37:16;;;;;;;;;;;;;;;10.57;55.01;100071.09;4966200;27;107962;-64
2023/11/26 01:39:42;;;;;;;;;;;;;;;10.56;54.69;100070.28;4978180;27;113364;-67
2023/11/26 01:42:09;;;;;;;;;;;;;;;10.57;54.84;100073.78;4983698;27;117457;-64
2023/11/26 01:44:35;;;;;;;;;;;;;;;10.55;54.62;100076.78;4981845;27;97967;-67
2023/11/26 01:47:05;;;;;;;;;;;;;;;10.56;54.81;100080.28;4963282;27;128031;-64
2023/11/26 01:49:32;;;;;;;;;;;;;;;10.56;54.71;100085.66;4968458;27;110670;-64
2023/11/26 01:51:59;;;;;;;;;;;;;;;10.56;54.56;100091.03;4970863;27;98204;-64
2023/11/26 01:54:25;;;;;;;;;;;;;;;10.56;55.06;100088.34;4964052;27;98378;-64
2023/11/26 01:56:52;;;;;;;;;;;;;;;10.55;54.88;100087.53;4982927;27;113676;-64
2023/11/26 01:59:18;;;;;;;;;;;;;;;10.55;54.58;100097.53;4964738;27;126370;-64
2023/11/26 02:01:43;;;;;;;;;;;;;;;10.54;54.47;100094.03;4958922;27;121354;-64
2023/11/26 02:04:09;;;;;;;;;;;;;;;10.55;54.83;100094.84;4978766;27;128901;-64
2023/11/26 02:06:35;;;;;;;;;;;;;;;10.54;54.81;100093.22;4964255;27;98316;-64
2023/11/26 02:09:02;;;;;;;;;;;;;;;10.55;54.58;100089.44;4966067;27;126644;-67
2023/11/26 02:11:28;;;;;;;;;;;;;;;10.53;54.51;100095.13;4978993;27;98227;-66
2023/11/26 02:13:57;;;;;;;;;;;;;;;10.54;54.57;100087.84;4956444;27;98278;-66
2023/11/26 02:16:24;;;;;;;;;;;;;;;10.54;54.43;100093.22;4978984;27;98601;-66
2023/11/26 02:18:50;;;;;;;;;;;;;;;10.54;54.47;100085.13;4977447;27;98173;-67
2023/11/26 02:21:16;;;;;;;;;;;;;;;10.53;54.51;100089.72;4964314;27;98091;-63
2023/11/26 02:23:43;;;;;;;;;;;;;;;10.52;54.81;100093.47;4966417;27;97840;-67
2023/11/26 02:26:09;;;;;;;;;;;;;;;10.52;54.75;100087.28;4963091;27;105473;-63
2023/11/26 02:28:45;;;;;;;;;;;;;;;10.50;54.53;100092.16;4975558;27;98140;-67
2023/11/26 02:31:11;;;;;;;;;;;;;;;10.50;54.61;100098.34;4960012;27;98395;-63
2023/11/26 02:33:37;;;;;;;;;;;;;;;10.50;54.49;100103.75;4964374;27;117835;-67
2023/11/26 02:36:07;;;;;;;;;;;;;;;10.49;54.55;100104.84;4967111;27;115615;-66
2023/11/26 02:38:33;;;;;;;;;;;;;;;10.49;54.84;100106.69;4963607;27;99187;-67
2023/11/26 02:40:59;;;;;;;;;;;;;;;10.48;54.79;100099.69;4976269;27;98678;-67
2023/11/26 02:43:25;;;;;;;;;;;;;;;10.47;54.82;100106.97;4964522;27;122664;-64
2023/11/26 02:45:56;;;;;;;;;;;;;;;10.47;54.74;100106.97;4975838;27;127334;-67
2023/11/26 02:48:24;;;;;;;;;;;;;;;10.46;54.45;100108.06;4963756;27;98100;-63
2023/11/26 02:50:50;;;;;;;;;;;;;;;10.44;54.77;100114.81;4997598;27;98212;-66
2023/11/26 02:53:16;;;;;;;;;;;;;;;10.45;54.55;100119.94;4968692;27;98935;-67
2023/11/26 02:55:44;;;;;;;;;;;;;;;10.44;54.51;100123.69;4963743;27;99823;-67
2023/11/26 02:58:13;;;;;;;;;;;;;;;10.45;54.55;100127.19;4991270;27;98683;-64
2023/11/26 03:00:42;;;;;;;;;;;;;;;10.45;54.36;100135.28;4965520;27;98877;-67
2023/11/26 03:03:10;;;;;;;;;;;;;;;10.44;54.59;100136.38;4976816;27;98307;-67
2023/11/26 03:05:37;;;;;;;;;;;;;;;10.43;54.72;100134.75;4969549;27;99545;-66
2023/11/26 03:08:09;;;;;;;;;;;;;;;10.44;54.74;100139.88;4975915;27;98350;-68
2023/11/26 03:13:23;;;;;;;;;;;;;;;10.43;54.89;100148.22;4975755;27;98234;-64
2023/11/26 03:15:49;;;;;;;;;;;;;;;10.43;54.49;100145.53;4963377;27;99862;-67
2023/11/26 03:18:17;;;;;;;;;;;;;;;10.43;54.48;100148.22;4977045;27;98649;-64
2023/11/26 03:20:43;;;;;;;;;;;;;;;10.43;54.81;100150.94;4975914;27;98224;-67
2023/11/26 03:23:09;;;;;;;;;;;;;;;10.41;54.48;100147.69;4975959;27;98763;-68
2023/11/26 03:25:35;;;;;;;;;;;;;;;10.42;54.75;100147.44;4965866;27;97981;-64
2023/11/26 03:28:04;;;;;;;;;;;;;;;10.42;54.42;100157.41;4957210;27;98342;-64
2023/11/26 03:30:31;;;;;;;;;;;;;;;10.42;54.77;100152.00;4989838;27;98396;-64
2023/11/26 03:33:00;;;;;;;;;;;;;;;10.41;54.86;100156.56;4967025;27;98844;-68
2023/11/26 03:35:26;;;;;;;;;;;;;;;10.41;54.95;100159.25;4976240;27;99633;-68
2023/11/26 03:37:53;;;;;;;;;;;;;;;10.40;54.83;100160.34;4960953;27;98133;-64
2023/11/26 03:40:20;;;;;;;;;;;;;;;10.41;54.72;100155.78;4981587;27;98457;-68
2023/11/26 03:42:49;;;;;;;;;;;;;;;10.42;54.83;100174.38;4962724;27;98451;-64
2023/11/26 03:45:15;;;;;;;;;;;;;;;10.41;54.70;100174.63;4971913;27;98203;-64
2023/11/26 03:47:42;;;;;;;;;;;;;;;10.41;54.78;100171.94;4966044;27;99374;-65
2023/11/26 03:50:09;;;;;;;;;;;;;;;10.41;54.88;100180.03;4980955;27;98350;-67
2023/11/26 03:52:35;;;;;;;;;;;;;;;10.41;54.87;100180.81;4972555;27;99880;-64
2023/11/26 03:55:02;;;;;;;;;;;;;;;10.41;54.42;100186.22;4979439;27;112686;-64
2023/11/26 03:57:27;;;;;;;;;;;;;;;10.41;54.63;100188.91;4982635;27;98009;-64
2023/11/26 03:59:54;;;;;;;;;;;;;;;10.42;54.46;100197.81;4968122;27;125477;-64
2023/11/26 04:02:19;;;;;;;;;;;;;;;10.41;54.83;100198.88;4970591;27;113157;-64
2023/11/26 04:04:51;;;;;;;;;;;;;;;10.40;54.46;100206.16;4988928;27;128125;-64
2023/11/26 04:07:19;;;;;;;;;;;;;;;10.38;54.48;100197.56;4992726;27;99945;-67
2023/11/26 04:09:48;;;;;;;;;;;;;;;10.39;54.75;100201.06;4965133;27;98690;-64
2023/11/26 04:12:14;;;;;;;;;;;;;;;10.40;54.33;100208.06;4984627;27;98345;-67
2023/11/26 04:14:57;;;;;;;;;;;;;;;10.37;54.66;100204.00;4981862;27;98775;-67
2023/11/26 04:17:24;;;;;;;;;;;;;;;10.37;54.36;100205.91;4964879;27;98251;-64
2023/11/26 04:19:54;;;;;;;;;;;;;;;10.36;54.84;100217.75;4974065;27;98296;-67
2023/11/26 04:22:22;;;;;;;;;;;;;;;10.33;54.46;100208.31;4987546;27;98105;-67
2023/11/26 04:24:48;;;;;;;;;;;;;;;10.30;54.24;100214.28;4966814;27;98006;-67
2023/11/26 04:27:18;;;;;;;;;;;;;;;10.29;54.39;100212.63;4979746;27;98268;-64
2023/11/26 04:29:44;;;;;;;;;;;;;;;10.27;54.30;100214.81;4983625;27;104207;-67
2023/11/26 04:32:10;;;;;;;;;;;;;;;10.25;54.42;100216.97;4979141;27;98481;-63
2023/11/26 04:34:36;;;;;;;;;;;;;;;10.24;54.89;100224.19;4976387;27;98339;-63
2023/11/26 04:37:08;;;;;;;;;;;;;;;10.21;54.85;100230.13;4970347;27;97838;-67
2023/11/26 04:39:34;;;;;;;;;;;;;;;10.22;54.75;100231.75;4966989;27;98281;-63
2023/11/26 04:42:01;;;;;;;;;;;;;;;10.21;54.60;100230.13;4967492;27;119125;-66
2023/11/26 04:44:27;;;;;;;;;;;;;;;10.20;54.63;100228.50;4969146;27;99831;-64
2023/11/26 04:46:53;;;;;;;;;;;;;;;10.19;54.58;100229.59;4965370;27;98300;-63
2023/11/26 04:49:19;;;;;;;;;;;;;;;10.21;54.65;100237.41;4963809;27;98418;-63
2023/11/26 04:51:46;;;;;;;;;;;;;;;10.21;54.33;100232.00;4966379;27;98301;-64
2023/11/26 04:54:12;;;;;;;;;;;;;;;10.20;54.41;100228.50;4978841;27;99624;-66
2023/11/26 04:56:39;;;;;;;;;;;;;;;10.20;54.90;100231.22;4963120;27;119980;-67
2023/11/26 04:59:06;;;;;;;;;;;;;;;10.20;54.37;100231.22;4962514;27;105574;-64
2023/11/26 05:01:34;;;;;;;;;;;;;;;10.21;54.30;100240.91;4969615;27;99046;-63
2023/11/26 05:04:01;;;;;;;;;;;;;;;10.21;54.36;100229.31;4963297;27;98422;-67
2023/11/26 05:06:27;;;;;;;;;;;;;;;10.21;54.75;100240.91;4973190;27;98380;-66
2023/11/26 05:08:56;;;;;;;;;;;;;;;10.20;54.77;100231.22;4983855;27;98680;-66
2023/11/26 05:11:22;;;;;;;;;;;;;;;10.21;54.46;100246.28;4981789;27;101349;-66
2023/11/26 05:13:50;;;;;;;;;;;;;;;10.21;54.88;100243.59;4979909;27;128545;-66
2023/11/26 05:16:16;;;;;;;;;;;;;;;10.22;54.56;100247.13;4966759;27;98890;-67
2023/11/26 05:18:43;;;;;;;;;;;;;;;10.22;54.80;100249.81;4967515;27;98361;-63
2023/11/26 05:21:09;;;;;;;;;;;;;;;10.22;54.66;100252.50;4987807;27;98280;-67
2023/11/26 05:23:35;;;;;;;;;;;;;;;10.23;54.59;100254.13;4967295;27;98378;-63
2023/11/26 05:26:02;;;;;;;;;;;;;;;10.23;54.60;100256.81;4984025;27;127372;-63
2023/11/26 05:28:29;;;;;;;;;;;;;;;10.21;54.30;100254.38;4970973;27;98515;-66
2023/11/26 05:30:55;;;;;;;;;;;;;;;10.22;54.71;100257.91;4969402;27;99537;-63
2023/11/26 05:33:21;;;;;;;;;;;;;;;10.22;54.37;100266.78;4968025;27;101291;-66
2023/11/26 05:35:47;;;;;;;;;;;;;;;10.22;54.78;100276.75;4960208;27;98071;-66
2023/11/26 05:38:13;;;;;;;;;;;;;;;10.21;54.44;100277.81;4965695;27;98155;-67
2023/11/26 05:40:40;;;;;;;;;;;;;;;10.21;54.69;100278.63;4979498;27;98254;-64
2023/11/26 05:43:06;;;;;;;;;;;;;;;10.22;54.36;100279.44;4980661;27;98279;-64
2023/11/26 05:45:32;;;;;;;;;;;;;;;10.22;54.85;100274.06;4967482;27;98472;-66
2023/11/26 05:47:58;;;;;;;;;;;;;;;10.21;54.43;100281.31;4966765;27;98326;-64
2023/11/26 05:50:25;;;;;;;;;;;;;;;10.22;54.59;100282.13;4982194;27;128185;-63
2023/11/26 05:52:51;;;;;;;;;;;;;;;10.21;54.70;100284.00;4985448;27;102143;-66
2023/11/26 05:55:20;;;;;;;;;;;;;;;10.21;54.49;100283.19;4982556;27;100070;-63
2023/11/26 05:57:46;;;;;;;;;;;;;;;10.22;54.42;100282.13;4982748;27;98164;-66
2023/11/26 06:00:13;;;;;;;;;;;;;;;10.22;54.69;100284.84;4965365;27;98337;-67
2023/11/26 06:02:40;;;;;;;;;;;;;;;10.21;54.54;100284.00;4962122;27;98298;-66
2023/11/26 06:05:07;;;;;;;;;;;;;;;10.21;54.56;100285.88;4962082;27;98222;-63
2023/11/26 06:07:33;;;;;;;;;;;;;;;10.21;54.72;100285.88;4995534;27;98135;-63
2023/11/26 06:09:59;;;;;;;;;;;;;;;10.20;54.70;100282.38;4964588;27;98319;-63
2023/11/26 06:12:25;;;;;;;;;;;;;;;10.22;54.39;100284.84;4965059;27;98154;-63
2023/11/26 06:14:52;;;;;;;;;;;;;;;10.20;54.26;100284.28;4976397;27;102430;-63
2023/11/26 06:17:17;;;;;;;;;;;;;;;10.19;54.24;100283.47;4966430;27;105457;-66
2023/11/26 06:19:44;;;;;;;;;;;;;;;10.19;54.67;100288.06;4975515;27;114113;-66
2023/11/26 06:22:10;;;;;;;;;;;;;;;10.19;54.96;100285.38;4958847;27;98504;-63
2023/11/26 06:24:36;;;;;;;;;;;;;;;10.19;54.59;100290.75;4977543;27;129884;-63
2023/11/26 06:27:01;;;;;;;;;;;;;;;10.18;54.90;100283.72;4963462;27;114989;-63
2023/11/26 06:29:27;;;;;;;;;;;;;;;10.18;54.87;100287.25;4960508;27;112079;-66
2023/11/26 06:31:53;;;;;;;;;;;;;;;10.19;54.41;100298.84;4977625;27;98294;-67
2023/11/26 06:34:25;;;;;;;;;;;;;;;10.18;54.85;100310.66;4974586;27;126854;-63
2023/11/26 06:36:51;;;;;;;;;;;;;;;10.19;54.25;100304.22;4976234;27;99623;-66
2023/11/26 06:39:19;;;;;;;;;;;;;;;10.18;54.53;100303.41;4963700;27;118159;-67
2023/11/26 06:41:45;;;;;;;;;;;;;;;10.18;54.47;100306.09;4960806;27;98139;-63
2023/11/26 06:44:11;;;;;;;;;;;;;;;10.18;54.63;100305.28;4965638;27;106633;-63
2023/11/26 06:46:37;;;;;;;;;;;;;;;10.20;54.72;100313.91;4959712;27;99812;-66
2023/11/26 06:49:02;;;;;;;;;;;;;;;10.19;54.48;100312.31;4962824;27;98173;-63
2023/11/26 06:51:28;;;;;;;;;;;;;;;10.19;54.51;100315.00;4988299;27;115064;-66
2023/11/26 06:53:54;;;;;;;;;;;;;;;10.20;54.20;100319.28;4959711;27;98204;-63
2023/11/26 06:56:20;;;;;;;;;;;;;;;10.21;54.39;100318.22;4962000;27;98740;-68
2023/11/26 06:58:47;;;;;;;;;;;;;;;10.22;54.21;100323.34;4972061;27;98394;-63
2023/11/26 07:01:13;;;;;;;;;;;;;;;10.23;54.60;100324.16;4958892;27;98065;-66
2023/11/26 07:03:39;;;;;;;;;;;;;;;10.26;54.16;100324.47;4965236;27;98300;-67
2023/11/26 07:06:09;;;;;;;;;;;;;;;10.32;54.35;100320.69;4965398;27;98337;-67
2023/11/26 07:08:38;;;;;;;;;;;;;;;10.43;54.61;100326.88;4968042;27;100052;-67
2023/11/26 07:11:05;;;;;;;;;;;;;;;10.50;54.59;100329.31;4974110;27;98323;-67
2023/11/26 07:13:31;;;;;;;;;;;;;;;10.56;54.20;100331.72;4954609;27;98365;-67
2023/11/26 07:15:57;;;;;;;;;;;;;;;10.62;54.52;100346.03;4960856;27;99388;-67
2023/11/26 07:18:23;;;;;;;;;;;;;;;10.68;54.26;100344.94;4961589;27;98494;-63
2023/11/26 07:20:50;;;;;;;;;;;;;;;10.73;54.44;100344.94;4956750;27;98701;-67
2023/11/26 07:23:16;;;;;;;;;;;;;;;10.78;54.35;100354.91;4961501;27;100579;-67
2023/11/26 07:25:43;;;;;;;;;;;;;;;10.80;54.21;100356.22;4977148;27;98466;-64
2023/11/26 07:28:11;;;;;;;;;;;;;;;10.84;54.21;100359.19;4972838;27;98203;-67
2023/11/26 07:30:41;;;;;;;;;;;;;;;10.90;54.50;100354.63;4974670;27;99779;-64
2023/11/26 07:33:08;;;;;;;;;;;;;;;10.93;54.28;100357.59;4991506;27;98066;-67
2023/11/26 07:35:33;;;;;;;;;;;;;;;10.98;54.33;100357.56;4982397;27;98259;-64
2023/11/26 07:38:04;;;;;;;;;;;;;;;11.03;54.32;100359.44;4963536;27;99621;-67
2023/11/26 07:40:30;;;;;;;;;;;;;;;11.10;54.30;100361.88;4960471;27;98529;-63
2023/11/26 07:42:56;;;;;;;;;;;;;;;11.16;54.21;100364.28;4976931;27;99488;-63
2023/11/26 07:45:22;;;;;;;;;;;;;;;11.21;54.24;100366.97;4970127;27;99661;-64
2023/11/26 07:47:48;;;;;;;;;;;;;;;11.26;54.16;100369.66;4995308;27;99318;-67
2023/11/26 07:50:14;;;;;;;;;;;;;;;11.33;54.06;100374.78;4976358;27;127561;-67
2023/11/26 07:52:40;;;;;;;;;;;;;;;11.38;54.11;100369.34;4975037;27;127699;-67
2023/11/26 07:55:06;;;;;;;;;;;;;;;11.48;54.13;100369.31;4963494;27;98343;-64
2023/11/26 07:57:39;;;;;;;;;;;;;;;11.53;54.19;100368.50;4963450;27;99674;-64
2023/11/26 08:00:06;;;;;;;;;;;;;;;11.58;53.98;100362.25;4977028;27;98242;-64
2023/11/26 08:02:35;;;;;;;;;;;;;;;11.65;53.88;100366.28;4962760;27;99394;-65
2023/11/26 08:05:01;;;;;;;;;;;;;;;11.77;54.05;100371.38;4991200;27;98407;-63
2023/11/26 08:07:29;;;;;;;;;;;;;;;11.95;53.76;100372.66;4975513;27;99632;-68
2023/11/26 08:09:55;;;;;;;;;;;;;;;11.98;53.86;100372.09;4979015;27;98399;-66
2023/11/26 08:12:23;;;;;;;;;;;;;;;11.92;53.77;100375.91;4973426;27;98285;-67
2023/11/26 08:14:52;;;;;;;;;;;;;;;11.87;54.06;100376.75;4964193;27;98293;-64
2023/11/26 08:17:19;;;;;;;;;;;;;;;11.84;54.03;100376.50;4964199;27;99945;-67
2023/11/26 08:19:49;;;;;;;;;;;;;;;11.80;53.89;100373.50;4977919;27;98561;-63
2023/11/26 08:22:15;;;;;;;;;;;;;;;11.82;54.02;100386.72;4977746;27;99434;-63
2023/11/26 08:24:45;;;;;;;;;;;;;;;11.80;54.25;100374.31;4990985;27;98222;-66
2023/11/26 08:27:14;;;;;;;;;;;;;;;11.83;54.00;100385.63;4975043;27;98141;-64
2023/11/26 08:29:44;;;;;;;;;;;;;;;11.87;53.91;100384.88;4962582;27;98865;-64
2023/11/26 08:32:10;;;;;;;;;;;;;;;11.89;54.13;100392.69;4960093;27;98374;-67
2023/11/26 08:34:39;;;;;;;;;;;;;;;11.95;53.98;100395.09;4979174;27;98749;-67
2023/11/26 08:37:07;;;;;;;;;;;;;;;12.00;54.06;100391.53;4981672;27;99926;-67
2023/11/26 08:39:39;;;;;;;;;;;;;;;12.07;53.64;100394.75;4962766;27;98616;-66
2023/11/26 08:42:06;;;;;;;;;;;;;;;12.06;54.08;100389.59;4962854;27;99571;-67
2023/11/26 08:44:32;;;;;;;;;;;;;;;12.16;53.73;100392.25;4960952;27;98245;-64
2023/11/26 08:47:02;;;;;;;;;;;;;;;12.29;53.78;100388.94;4984441;27;98597;-67
2023/11/26 08:49:28;;;;;;;;;;;;;;;12.40;53.42;100390.47;4973315;27;98661;-67
2023/11/26 08:51:57;;;;;;;;;;;;;;;12.47;53.54;100395.56;4972450;27;98281;-64
2023/11/26 08:54:23;;;;;;;;;;;;;;;12.61;53.49;100393.03;4964525;27;98482;-63
2023/11/26 08:56:52;;;;;;;;;;;;;;;12.62;53.74;100398.16;4965090;27;128681;-67
2023/11/26 08:59:18;;;;;;;;;;;;;;;12.68;53.69;100397.03;4975950;27;98246;-64
2023/11/26 09:01:44;;;;;;;;;;;;;;;12.77;53.69;100398.06;4963279;27;99531;-64
2023/11/26 09:04:11;;;;;;;;;;;;;;;12.78;53.66;100399.66;4978309;27;99559;-67
2023/11/26 09:06:38;;;;;;;;;;;;;;;12.84;53.48;100397.69;4964380;27;99135;-67
2023/11/26 09:09:04;;;;;;;;;;;;;;;13.65;52.82;100390.69;4957449;27;98218;-64
2023/11/26 09:11:30;;;;;;;;;;;;;;;14.03;52.48;100392.63;4975434;27;115028;-67
2023/11/26 09:14:00;;;;;;;;;;;;;;;14.37;52.49;100398.66;4966256;27;98068;-67
2023/11/26 09:16:26;;;;;;;;;;;;;;;14.63;52.43;100401.81;4977329;27;98416;-64
2023/11/26 09:18:52;;;;;;;;;;;;;;;15.17;51.81;100400.38;4995513;27;98430;-67
2023/11/26 09:21:19;;;;;;;;;;;;;;;15.34;52.03;100407.91;4958052;27;98650;-67
2023/11/26 09:23:45;;;;;;;;;;;;;;;15.05;52.58;100413.63;4973687;27;101901;-64
2023/11/26 09:26:12;;;;;;;;;;;;;;;14.76;53.03;100415.72;4963256;27;98637;-64
2023/11/26 09:28:38;;;;;;;;;;;;;;;14.59;53.14;100419.78;4973664;27;98786;-67
2023/11/26 09:31:05;;;;;;;;;;;;;;;14.63;53.20;100422.72;4955773;27;126795;-64
2023/11/26 09:33:31;;;;;;;;;;;;;;;14.65;52.80;100420.50;4957829;27;98870;-64
2023/11/26 09:35:57;;;;;;;;;;;;;;;14.95;52.57;100417.28;4961296;27;98494;-64
2023/11/26 09:38:23;;;;;;;;;;;;;;;15.07;52.77;100416.81;4956407;27;98381;-64
2023/11/26 09:40:49;;;;;;;;;;;;;;;15.05;52.77;100416.31;4962409;27;98457;-67
2023/11/26 09:43:16;;;;;;;;;;;;;;;15.04;52.84;100414.69;4971642;27;98094;-67
2023/11/26 09:45:45;;;;;;;;;;;;;;;15.19;52.81;100417.16;4956754;27;98306;-63
2023/11/26 09:48:11;;;;;;;;;;;;;;;14.98;53.06;100411.28;4962953;27;98190;-66
2023/11/26 09:50:38;;;;;;;;;;;;;;;14.79;53.36;100415.13;4976325;27;127514;-67
2023/11/26 09:53:04;;;;;;;;;;;;;;;14.59;53.41;100414.38;4956955;27;98189;-63
2023/11/26 09:55:39;;;;;;;;;;;;;;;14.47;53.59;100425.63;4960397;27;99284;-67
2023/11/26 09:58:05;;;;;;;;;;;;;;;14.33;53.82;100415.81;4981826;27;98225;-67
2023/11/26 10:00:31;;;;;;;;;;;;;;;14.19;53.90;100418.44;4969158;27;98529;-67
2023/11/26 10:03:02;;;;;;;;;;;;;;;14.11;53.62;100413.66;4975434;27;98195;-64
2023/11/26 10:05:28;;;;;;;;;;;;;;;14.03;53.66;100414.31;4975627;27;98290;-64
2023/11/26 10:07:54;;;;;;;;;;;;;;;13.97;53.67;100411.69;4963426;27;98250;-67
2023/11/26 10:10:23;;;;;;;;;;;;;;;14.08;53.53;100411.56;4989413;27;98316;-67
2023/11/26 10:12:57;;;;;;;;;;;;;;;14.13;53.50;100408.75;4976247;27;98362;-67
2023/11/26 10:15:28;;;;;;;;;;;;;;;14.08;53.83;100404.22;4975141;27;98546;-67
2023/11/26 10:18:05;;;;;;;;;;;;;;;14.16;53.70;100403.56;4960256;27;99243;-64
2023/11/26 10:20:45;;;;;;;;;;;;;;;14.14;53.72;100405.75;4981522;27;98313;-63
2023/11/26 10:23:13;;;;;;;;;;;;;;;14.32;53.26;100400.66;4977515;27;98283;-64
2023/11/26 10:25:42;;;;;;;;;;;;;;;14.33;53.26;100397.63;4973847;27;98113;-63
2023/11/26 10:28:15;;;;;;;;;;;;;;;14.19;53.70;100402.19;4964704;27;99726;-67
2023/11/26 10:30:42;;;;;;;;;;;;;;;14.08;53.65;100406.13;4976013;27;98386;-63
2023/11/26 10:33:09;;;;;;;;;;;;;;;13.93;54.06;100401.72;4962026;27;98165;-63
2023/11/26 10:35:55;;;;;;;;;;;;;;;13.79;54.27;100408.94;4959466;27;106690;-67
2023/11/26 10:38:24;;;;;;;;;;;;;;;13.64;53.82;100405.34;4985903;27;99276;-67
2023/11/26 10:40:50;;;;;;;;;;;;;;;13.54;54.18;100410.84;4964180;27;99796;-63
2023/11/26 10:43:16;;;;;;;;;;;;;;;13.48;54.03;100412.81;4966021;27;105119;-67
2023/11/26 10:45:43;;;;;;;;;;;;;;;13.57;54.03;100417.59;4976410;27;98625;-67
2023/11/26 10:48:10;;;;;;;;;;;;;;;13.86;53.63;100410.19;4963326;27;98706;-67
2023/11/26 10:51:02;;;;;;;;;;;;;;;14.19;53.46;100407.63;4962011;27;98352;-67
2023/11/26 10:53:40;;;;;;;;;;;;;;;14.41;52.83;100415.13;4977517;27;98434;-64
2023/11/26 10:56:06;;;;;;;;;;;;;;;14.43;53.31;100416.47;4971471;27;105148;-64
2023/11/26 10:58:40;;;;;;;;;;;;;;;14.52;52.87;100416.63;4956417;27;98281;-64
2023/11/26 11:01:07;;;;;;;;;;;;;;;14.56;53.04;100411.44;4978886;27;98194;-68
2023/11/26 11:03:33;;;;;;;;;;;;;;;14.58;53.38;100403.78;4962621;27;98239;-64
2023/11/26 11:06:00;;;;;;;;;;;;;;;14.57;53.40;100399.47;4958830;27;98454;-64
2023/11/26 11:08:26;;;;;;;;;;;;;;;14.58;53.11;100399.19;4971999;27;99176;-64
2023/11/26 11:10:55;;;;;;;;;;;;;;;14.59;53.15;100398.09;4973187;27;123897;-68
2023/11/26 11:13:21;;;;;;;;;;;;;;;14.56;53.41;100401.38;4993753;27;98909;-68
2023/11/26 11:15:47;;;;;;;;;;;;;;;14.41;53.54;100413.22;4976021;27;99864;-64
2023/11/26 11:18:27;;;;;;;;;;;;;;;14.25;53.68;100399.09;4974525;27;117175;-64
2023/11/26 11:21:05;;;;;;;;;;;;;;;14.13;53.90;100400.63;4984154;27;97997;-67
2023/11/26 11:23:32;;;;;;;;;;;;;;;13.99;53.88;100401.38;4974876;27;100816;-68
2023/11/26 11:25:58;;;;;;;;;;;;;;;13.90;54.13;100405.81;4974410;27;98402;-64
2023/11/26 11:28:43;;;;;;;;;;;;;;;13.83;54.13;100405.34;4964609;27;100353;-67
2023/11/26 11:31:12;;;;;;;;;;;;;;;13.82;54.19;100409.16;4995316;27;98574;-64
2023/11/26 11:33:59;;;;;;;;;;;;;;;13.89;53.74;100403.41;4976381;27;98141;-64
2023/11/26 11:36:49;;;;;;;;;;;;;;;13.93;53.54;100407.94;5007727;27;98712;-67
2023/11/26 11:39:25;;;;;;;;;;;;;;;13.98;53.47;100407.06;5008137;27;98448;-64
2023/11/26 11:41:57;;;;;;;;;;;;;;;13.99;53.51;100406.78;4965059;27;98177;-65
2023/11/26 11:44:33;;;;;;;;;;;;;;;14.00;53.85;100394.03;4992483;27;98334;-65
2023/11/26 11:47:03;;;;;;;;;;;;;;;13.90;53.89;100405.81;4972292;27;98333;-64
2023/11/26 11:49:53;;;;;;;;;;;;;;;13.89;53.77;100409.63;4969102;27;99837;-67
2023/11/26 11:52:19;;;;;;;;;;;;;;;13.81;53.95;100395.91;4991476;27;98340;-67
2023/11/26 11:55:22;;;;;;;;;;;;;;;13.72;53.75;100412.81;4962314;27;98278;-67
2023/11/26 11:57:48;;;;;;;;;;;;;;;13.58;54.17;100406.47;4989834;27;122545;-64
2023/11/26 12:00:20;;;;;;;;;;;;;;;13.50;53.92;100407.91;4960483;27;98312;-67
2023/11/26 12:02:47;;;;;;;;;;;;;;;13.44;54.32;100400.13;4959325;27;98173;-67
2023/11/26 12:05:24;;;;;;;;;;;;;;;13.40;54.02;100396.38;4955776;27;98298;-64
2023/11/26 12:07:51;;;;;;;;;;;;;;;13.39;54.20;100401.00;4960671;27;99430;-67
2023/11/26 12:10:24;;;;;;;;;;;;;;;13.42;54.14;100391.50;4965027;27;98186;-64
2023/11/26 12:13:03;;;;;;;;;;;;;;;13.49;53.80;100397.38;4982620;27;98134;-67
2023/11/26 12:15:30;;;;;;;;;;;;;;;13.55;53.76;100384.56;4984100;27;98223;-64
2023/11/26 12:17:56;;;;;;;;;;;;;;;13.60;53.99;100384.53;4976756;27;98621;-66
2023/11/26 12:20:23;;;;;;;;;;;;;;;13.59;53.85;100377.47;4975284;27;99527;-64
2023/11/26 12:22:50;;;;;;;;;;;;;;;13.54;53.98;100377.56;4959237;27;99144;-64
2023/11/26 12:25:21;;;;;;;;;;;;;;;13.49;53.94;100381.13;4993739;27;98183;-67
2023/11/26 12:27:48;;;;;;;;;;;;;;;13.41;54.14;100377.16;4974253;27;98460;-64
2023/11/26 12:30:16;;;;;;;;;;;;;;;13.35;53.86;100380.19;4960145;27;98740;-67
2023/11/26 12:32:43;;;;;;;;;;;;;;;13.29;53.99;100381.38;4966492;27;98164;-68
2023/11/26 12:35:13;;;;;;;;;;;;;;;13.24;54.32;100380.31;4964713;27;98448;-64
2023/11/26 12:37:41;;;;;;;;;;;;;;;13.20;54.09;100387.38;4972787;27;98439;-64
2023/11/26 12:40:09;;;;;;;;;;;;;;;13.19;53.88;100393.06;4963758;27;98684;-67
2023/11/26 12:42:35;;;;;;;;;;;;;;;13.23;54.10;100388.72;4960835;27;115726;-64